Time;durP1;ratioP1;P1;durP2;ratioP2;P2;SDS_P1;SDS_P2;PMS_P1;PMS_P2;Temp;Humidity;BMP_temperature;BMP_pressure;BME280_temperature;BME280_humidity;BME280_pressure;Samples;Min_cycle;Max_cycle;Signal;HPM_P1;HPM_P2
2023/03/31 00:01:11;;;;;;;0.93;0.50;;;10.40;95.10;;;;;;4988344;28;20686;-69
2023/03/31 00:03:42;;;;;;;1.33;0.97;;;10.40;95.30;;;;;;4988575;28;20629;-69
2023/03/31 00:06:16;;;;;;;0.97;0.60;;;10.30;95.60;;;;;;4988246;28;21094;-68
2023/03/31 00:08:45;;;;;;;1.67;1.33;;;10.30;95.80;;;;;;4987042;28;20633;-68
2023/03/31 00:11:14;;;;;;;3.03;1.00;;;10.30;95.80;;;;;;4988164;28;20653;-69
2023/03/31 00:13:43;;;;;;;0.73;0.73;;;10.40;95.60;;;;;;4988341;28;20681;-68
2023/03/31 00:16:10;;;;;;;2.17;1.00;;;10.40;95.40;;;;;;4988395;28;20649;-69
2023/03/31 00:18:46;;;;;;;0.80;0.60;;;10.30;95.30;;;;;;4986744;28;20649;-69
2023/03/31 00:21:24;;;;;;;0.80;0.60;;;10.40;95.40;;;;;;4987698;28;20742;-69
2023/03/31 00:23:51;;;;;;;1.37;1.27;;;10.40;95.50;;;;;;4988240;28;20632;-68
2023/03/31 00:26:18;;;;;;;0.97;0.60;;;10.40;95.40;;;;;;4987796;28;20708;-69
2023/03/31 00:28:45;;;;;;;0.70;0.70;;;10.40;95.40;;;;;;4987219;28;20629;-70
2023/03/31 00:31:14;;;;;;;0.50;0.47;;;10.50;95.40;;;;;;4987820;28;20716;-70
2023/03/31 00:33:42;;;;;;;1.00;0.50;;;10.50;95.40;;;;;;4988024;28;20644;-69
2023/03/31 00:36:11;;;;;;;1.43;0.57;;;10.50;95.40;;;;;;4988015;28;20663;-70
2023/03/31 00:38:44;;;;;;;1.20;1.10;;;10.50;95.50;;;;;;4981798;28;20748;-70
2023/03/31 00:41:11;;;;;;;1.13;0.90;;;10.50;95.50;;;;;;4987382;28;20667;-70
2023/03/31 00:43:41;;;;;;;2.73;1.30;;;10.50;95.50;;;;;;4987918;28;20617;-70
2023/03/31 00:46:16;;;;;;;1.57;0.93;;;10.50;95.40;;;;;;4988009;28;20683;-70
2023/03/31 00:48:48;;;;;;;1.43;0.93;;;10.60;95.50;;;;;;4986746;28;20731;-70
2023/03/31 00:51:16;;;;;;;0.37;0.37;;;10.60;95.40;;;;;;4987173;28;20661;-70
2023/03/31 00:53:48;;;;;;;1.53;0.73;;;10.50;95.30;;;;;;4988118;28;20632;-70
2023/03/31 00:56:19;;;;;;;2.23;0.87;;;10.60;95.10;;;;;;4968530;28;20652;-70
2023/03/31 00:58:48;;;;;;;2.13;0.50;;;10.50;95.40;;;;;;4971801;28;20625;-69
2023/03/31 01:01:23;;;;;;;0.70;0.57;;;10.70;98.90;;;;;;4987576;28;20727;-71
2023/03/31 01:03:50;;;;;;;0.90;0.90;;;10.50;95.40;;;;;;4986274;28;20636;-70
2023/03/31 01:06:18;;;;;;;0.70;0.70;;;10.50;95.50;;;;;;4986072;28;20660;-70
2023/03/31 01:08:50;;;;;;;1.80;0.97;;;10.60;95.40;;;;;;4986393;28;21202;-70
2023/03/31 01:11:20;;;;;;;2.40;0.70;;;10.60;95.30;;;;;;4987289;28;20751;-70
2023/03/31 01:13:50;;;;;;;1.23;1.13;;;10.50;95.40;;;;;;4987470;28;20675;-70
2023/03/31 01:16:18;;;;;;;4.53;1.60;;;10.50;95.60;;;;;;4987694;28;20652;-70
2023/03/31 01:18:48;;;;;;;2.10;0.70;;;10.50;95.50;;;;;;4985769;28;20637;-70
2023/03/31 01:22:04;;;;;;;1.03;0.87;;;10.50;95.80;;;;;;4986683;28;20679;-71
2023/03/31 01:25:10;;;;;;;5.40;1.17;;;10.40;96.00;;;;;;4987876;28;20639;-70
2023/03/31 01:27:56;;;;;;;1.40;0.90;;;10.40;95.90;;;;;;4972962;28;20632;-70
2023/03/31 01:31:08;;;;;;;12.40;1.27;;;10.40;95.50;;;;;;4986262;28;20771;-69
2023/03/31 01:34:12;;;;;;;4.03;1.40;;;10.50;95.50;;;;;;4951249;28;20732;-70
2023/03/31 01:37:15;;;;;;;3.10;1.03;;;10.50;95.40;;;;;;4987390;28;21023;-70
2023/03/31 01:40:19;;;;;;;1.70;0.97;;;10.50;95.50;;;;;;4986343;28;20680;-70
2023/03/31 01:42:54;;;;;;;0.70;0.70;;;10.50;95.40;;;;;;4974767;28;20728;-70
2023/03/31 01:45:32;;;;;;;1.57;0.90;;;10.60;95.70;;;;;;4987487;28;20632;-70
2023/03/31 01:48:08;;;;;;;0.60;0.50;;;10.50;95.40;;;;;;4986939;28;20633;-70
2023/03/31 01:50:45;;;;;;;0.67;0.63;;;10.60;94.90;;;;;;4988214;28;20644;-70
2023/03/31 01:53:19;;;;;;;0.50;0.50;;;10.60;95.60;;;;;;4991106;28;20652;-70
2023/03/31 01:56:00;;;;;;;2.30;0.47;;;10.60;95.60;;;;;;4990813;28;20770;-70
2023/03/31 01:58:32;;;;;;;0.30;0.30;;;10.60;96.20;;;;;;4989175;28;20737;-70
2023/03/31 02:01:07;;;;;;;1.03;0.30;;;10.70;95.80;;;;;;4990187;28;21084;-69
2023/03/31 02:03:40;;;;;;;0.40;0.40;;;10.60;95.90;;;;;;4990407;28;20631;-69
2023/03/31 02:06:14;;;;;;;1.80;0.70;;;10.60;96.90;;;;;;4990460;28;20751;-70
2023/03/31 02:08:46;;;;;;;1.60;0.77;;;10.50;96.80;;;;;;4973975;28;20624;-70
2023/03/31 02:11:16;;;;;;;1.40;1.33;;;10.50;97.40;;;;;;4990056;28;20656;-70
2023/03/31 02:13:48;;;;;;;2.00;0.83;;;10.50;97.10;;;;;;4990706;28;21232;-70
2023/03/31 02:16:23;;;;;;;0.90;0.70;;;10.50;97.10;;;;;;4990685;28;20647;-70
2023/03/31 02:19:01;;;;;;;0.77;0.77;;;10.50;97.00;;;;;;4981120;28;20637;-70
2023/03/31 02:21:31;;;;;;;0.87;0.87;;;10.50;97.90;;;;;;4990044;28;20676;-70
2023/03/31 02:24:03;;;;;;;1.10;0.93;;;10.50;98.00;;;;;;4990203;28;20624;-70
2023/03/31 02:26:42;;;;;;;3.33;1.83;;;10.40;98.30;;;;;;4990086;28;20688;-70
2023/03/31 02:29:10;;;;;;;0.90;0.83;;;10.40;98.90;;;;;;4988915;28;20613;-70
2023/03/31 02:31:47;;;;;;;1.60;0.87;;;10.40;99.10;;;;;;4989712;28;20748;-70
2023/03/31 02:34:16;;;;;;;0.83;0.80;;;10.40;99.10;;;;;;4989489;28;21035;-71
2023/03/31 02:36:45;;;;;;;1.73;0.93;;;10.30;99.20;;;;;;4990184;28;20668;-70
2023/03/31 02:39:16;;;;;;;1.27;1.17;;;10.30;99.50;;;;;;4988808;28;20617;-70
2023/03/31 02:41:45;;;;;;;1.33;0.87;;;10.40;99.50;;;;;;4989537;28;21072;-70
2023/03/31 02:44:13;;;;;;;1.10;0.60;;;10.30;99.20;;;;;;4990425;28;20617;-70
2023/03/31 02:46:45;;;;;;;1.00;0.67;;;10.20;99.60;;;;;;4989829;28;20745;-69
2023/03/31 02:49:16;;;;;;;0.67;0.67;;;10.20;99.70;;;;;;4989417;28;20732;-69
2023/03/31 02:52:17;;;;;;;1.33;0.90;;;10.20;99.90;;;;;;4989417;28;20657;-70
2023/03/31 02:55:20;;;;;;;0.87;0.87;;;10.20;99.90;;;;;;4984092;28;20635;-69
2023/03/31 02:58:28;;;;;;;1.90;1.10;;;10.20;99.90;;;;;;4978305;28;20633;-69
2023/03/31 03:01:27;;;;;;;1.50;1.47;;;10.20;99.90;;;;;;4989313;28;20673;-69
2023/03/31 03:04:10;;;;;;;3.10;1.30;;;10.20;99.90;;;;;;4989940;28;20684;-70
2023/03/31 03:06:52;;;;;;;2.83;0.90;;;10.20;99.90;;;;;;4988937;28;20667;-70
2023/03/31 03:09:37;;;;;;;7.60;1.97;;;10.20;99.90;;;;;;4988851;28;20628;-70
2023/03/31 03:12:14;;;;;;;0.87;0.87;;;10.10;99.90;;;;;;4989707;28;20656;-70
2023/03/31 03:14:47;;;;;;;1.03;0.83;;;10.10;99.90;;;;;;4989172;28;20633;-70
2023/03/31 03:17:18;;;;;;;0.97;0.87;;;10.10;99.90;;;;;;4989678;28;20668;-70
2023/03/31 03:19:56;;;;;;;0.87;0.87;;;10.10;99.90;;;;;;4987869;28;20657;-70
2023/03/31 03:22:24;;;;;;;0.70;0.70;;;10.00;99.90;;;;;;4988977;28;20688;-70
2023/03/31 03:24:54;;;;;;;1.03;0.93;;;9.90;99.90;;;;;;4989459;28;20625;-70
2023/03/31 03:27:22;;;;;;;1.47;1.17;;;9.90;99.90;;;;;;4989479;28;20649;-70
2023/03/31 03:29:52;;;;;;;1.67;1.13;;;9.90;99.90;;;;;;4988037;28;20624;-70
2023/03/31 03:32:19;;;;;;;1.10;1.10;;;9.90;99.90;;;;;;4989101;28;20659;-69
2023/03/31 03:34:48;;;;;;;6.07;1.20;;;9.90;99.90;;;;;;4988490;28;20700;-71
2023/03/31 03:37:15;;;;;;;7.00;2.30;;;9.90;99.90;;;;;;4988822;28;20649;-71
2023/03/31 03:39:42;;;;;;;1.63;1.30;;;9.90;99.90;;;;;;4987983;28;21183;-70
2023/03/31 03:42:15;;;;;;;1.70;1.57;;;9.90;99.90;;;;;;4988815;28;20676;-70
2023/03/31 03:44:43;;;;;;;1.50;1.20;;;9.90;99.90;;;;;;4989023;28;20648;-70
2023/03/31 03:47:12;;;;;;;1.70;1.60;;;9.90;99.90;;;;;;4988401;28;20657;-70
2023/03/31 03:49:39;;;;;;;2.07;0.93;;;9.90;99.90;;;;;;4987717;28;21029;-69
2023/03/31 03:52:08;;;;;;;17.90;1.23;;;9.90;99.90;;;;;;4987970;28;21250;-70
2023/03/31 03:54:36;;;;;;;1.10;0.80;;;9.90;99.90;;;;;;4989357;28;20675;-70
2023/03/31 03:57:03;;;;;;;0.80;0.80;;;9.90;99.90;;;;;;4988640;28;21087;-70
2023/03/31 03:59:31;;;;;;;3.70;0.90;;;9.90;99.90;;;;;;4987238;28;21126;-70
2023/03/31 04:01:58;;;;;;;1.23;1.23;;;9.90;99.90;;;;;;4988086;28;20709;-70
2023/03/31 04:04:28;;;;;;;4.10;1.57;;;9.80;99.90;;;;;;4988314;28;20748;-70
2023/03/31 04:06:55;;;;;;;2.70;1.80;;;9.80;99.90;;;;;;4988217;28;20673;-69
2023/03/31 04:09:21;;;;;;;1.80;1.70;;;9.80;99.90;;;;;;4987626;28;20728;-70
2023/03/31 04:11:48;;;;;;;1.47;1.13;;;9.80;99.90;;;;;;4987631;28;21313;-69
2023/03/31 04:14:17;;;;;;;0.90;0.90;;;9.80;99.90;;;;;;4987076;28;20629;-71
2023/03/31 04:16:45;;;;;;;3.90;1.60;;;9.80;99.90;;;;;;4988567;28;20749;-70
2023/03/31 04:19:16;;;;;;;1.20;1.10;;;9.80;99.90;;;;;;4987553;28;20633;-70
2023/03/31 04:21:44;;;;;;;1.33;1.23;;;9.70;99.90;;;;;;4987662;28;20766;-70
2023/03/31 04:24:20;;;;;;;2.17;1.27;;;9.60;99.90;;;;;;4988236;28;20631;-69
2023/03/31 04:26:49;;;;;;;1.53;1.17;;;9.60;99.90;;;;;;4987784;28;21261;-70
2023/03/31 04:29:19;;;;;;;1.70;1.60;;;9.60;99.90;;;;;;4987367;28;21300;-70
2023/03/31 04:31:49;;;;;;;1.30;1.20;;;9.60;99.90;;;;;;4987452;28;21184;-70
2023/03/31 04:34:16;;;;;;;1.53;1.37;;;9.60;99.90;;;;;;4988047;28;20658;-70
2023/03/31 04:36:49;;;;;;;1.60;1.47;;;9.60;99.90;;;;;;4987849;28;20663;-69
2023/03/31 04:39:25;;;;;;;2.17;1.20;;;9.60;99.90;;;;;;4986629;28;20642;-70
2023/03/31 04:41:52;;;;;;;7.50;2.83;;;9.60;99.90;;;;;;4987549;28;20672;-70
2023/03/31 04:44:19;;;;;;;1.90;1.20;;;9.60;99.90;;;;;;4987700;28;20625;-70
2023/03/31 04:46:46;;;;;;;1.00;1.00;;;9.60;99.90;;;;;;4987957;28;20736;-69
2023/03/31 04:49:16;;;;;;;1.60;1.50;;;9.60;99.90;;;;;;4986097;28;20645;-69
2023/03/31 04:51:46;;;;;;;1.33;1.23;;;9.60;99.90;;;;;;4986097;28;20780;-70
2023/03/31 04:54:13;;;;;;;1.50;1.40;;;9.60;99.90;;;;;;4988065;28;20625;-70
2023/03/31 04:56:42;;;;;;;4.30;1.73;;;9.60;99.90;;;;;;4987513;28;20664;-70
2023/03/31 04:59:10;;;;;;;0.73;0.73;;;9.60;99.90;;;;;;4986683;28;20641;-70
2023/03/31 05:01:37;;;;;;;1.60;1.50;;;9.70;99.90;;;;;;4975169;28;20653;-70
2023/03/31 05:04:05;;;;;;;0.90;0.90;;;9.70;99.90;;;;;;4979425;28;21034;-71
2023/03/31 05:06:33;;;;;;;2.10;1.90;;;9.70;99.90;;;;;;4997303;28;20676;-71
2023/03/31 05:09:02;;;;;;;6.17;2.10;;;9.70;99.90;;;;;;4996914;28;21158;-70
2023/03/31 05:11:29;;;;;;;8.60;1.90;;;9.70;99.90;;;;;;4986315;28;20744;-69
2023/03/31 05:13:56;;;;;;;1.37;1.27;;;9.70;99.90;;;;;;4995781;28;20634;-69
2023/03/31 05:16:22;;;;;;;2.73;2.20;;;9.60;99.90;;;;;;4999280;28;20664;-69
2023/03/31 05:18:51;;;;;;;1.43;1.33;;;9.60;99.90;;;;;;4987015;28;20635;-69
2023/03/31 05:21:22;;;;;;;3.43;1.73;;;9.60;99.90;;;;;;4986493;28;20786;-70
2023/03/31 05:23:50;;;;;;;2.43;2.23;;;9.50;99.90;;;;;;4994879;28;20723;-70
2023/03/31 05:26:21;;;;;;;2.10;1.10;;;9.40;99.90;;;;;;5000052;28;20661;-70
2023/03/31 05:28:49;;;;;;;3.03;2.57;;;9.40;99.90;;;;;;4995557;28;20632;-70
2023/03/31 05:31:21;;;;;;;7.20;3.40;;;9.40;99.90;;;;;;4997549;28;20760;-70
2023/03/31 05:33:48;;;;;;;3.07;1.87;;;9.30;99.90;;;;;;5003692;28;20623;-70
2023/03/31 05:36:18;;;;;;;2.80;1.70;;;9.30;99.90;;;;;;4991594;28;20653;-72
2023/03/31 05:38:46;;;;;;;5.60;2.10;;;9.30;99.90;;;;;;4991015;28;20723;-70
2023/03/31 05:41:16;;;;;;;3.70;2.20;;;9.40;99.90;;;;;;4992532;28;20657;-69
2023/03/31 05:43:45;;;;;;;1.37;1.27;;;9.40;99.90;;;;;;4994472;28;20636;-70
2023/03/31 05:46:13;;;;;;;9.70;2.10;;;9.40;99.90;;;;;;4999891;28;20653;-70
2023/03/31 05:48:40;;;;;;;1.80;1.70;;;9.30;99.90;;;;;;5004712;28;20633;-71
2023/03/31 05:51:08;;;;;;;1.43;1.33;;;9.30;99.90;;;;;;4998106;28;21296;-72
2023/03/31 05:53:34;;;;;;;1.90;1.53;;;9.30;99.90;;;;;;4994058;28;20957;-71
2023/03/31 05:56:04;;;;;;;1.30;1.20;;;9.30;99.90;;;;;;4990927;28;20665;-72
2023/03/31 05:58:35;;;;;;;3.23;2.40;;;9.40;99.90;;;;;;4994451;28;20690;-72
2023/03/31 06:01:06;;;;;;;1.13;1.03;;;9.40;99.90;;;;;;4990642;28;20676;-71
2023/03/31 06:03:33;;;;;;;1.60;1.50;;;9.40;99.90;;;;;;4991314;28;20647;-71
2023/03/31 06:06:00;;;;;;;4.37;2.10;;;9.40;99.90;;;;;;4990414;28;21326;-71
2023/03/31 06:08:28;;;;;;;4.00;1.70;;;9.40;99.90;;;;;;5001324;28;20632;-71
2023/03/31 06:10:57;;;;;;;3.87;2.70;;;9.40;99.90;;;;;;4995343;28;20759;-71
2023/03/31 06:13:26;;;;;;;2.17;1.43;;;9.40;99.90;;;;;;4989882;28;20636;-70
2023/03/31 06:15:54;;;;;;;1.80;1.70;;;9.40;99.90;;;;;;4988539;28;21292;-71
2023/03/31 06:18:22;;;;;;;1.60;1.50;;;9.40;99.90;;;;;;4990169;28;21487;-71
2023/03/31 06:20:52;;;;;;;3.07;1.63;;;9.30;99.90;;;;;;4990165;28;20738;-71
2023/03/31 06:23:21;;;;;;;2.13;1.53;;;9.40;99.90;;;;;;4990302;28;20740;-71
2023/03/31 06:25:48;;;;;;;1.63;1.53;;;9.40;99.90;;;;;;4992685;28;20652;-71
2023/03/31 06:28:17;;;;;;;4.50;2.67;;;9.40;99.90;;;;;;4990665;28;20636;-71
2023/03/31 06:30:44;;;;;;;7.07;2.40;;;9.40;99.90;;;;;;4992523;28;20761;-72
2023/03/31 06:33:15;;;;;;;8.63;4.73;;;9.40;99.90;;;;;;4991375;28;20629;-71
2023/03/31 06:35:44;;;;;;;2.43;2.20;;;9.30;99.90;;;;;;4993737;28;20654;-71
2023/03/31 06:38:11;;;;;;;3.20;2.90;;;9.40;99.90;;;;;;5005294;28;20734;-71
2023/03/31 06:40:37;;;;;;;3.53;1.90;;;9.30;99.90;;;;;;4988650;28;20664;-71
2023/03/31 06:43:05;;;;;;;2.67;2.47;;;9.30;99.90;;;;;;4993950;28;21005;-71
2023/03/31 06:45:32;;;;;;;3.13;2.93;;;9.30;99.90;;;;;;5002095;28;20684;-71
2023/03/31 06:47:59;;;;;;;2.47;1.97;;;9.30;99.90;;;;;;4995276;28;20632;-71
2023/03/31 06:50:27;;;;;;;2.20;2.00;;;9.30;99.90;;;;;;4991336;28;20657;-72
2023/03/31 06:52:55;;;;;;;2.33;2.23;;;9.30;99.90;;;;;;4999052;28;20634;-72
2023/03/31 06:55:23;;;;;;;1.80;1.70;;;9.40;99.90;;;;;;4994617;28;20734;-71
2023/03/31 06:57:54;;;;;;;2.57;1.17;;;9.30;99.90;;;;;;4989440;28;21194;-71
2023/03/31 07:00:21;;;;;;;1.43;1.33;;;9.20;99.90;;;;;;4988635;28;20621;-71
2023/03/31 07:02:48;;;;;;;3.40;3.10;;;9.20;99.90;;;;;;4989160;28;20759;-71
2023/03/31 07:05:17;;;;;;;2.53;2.10;;;9.30;99.90;;;;;;4988574;28;20621;-71
2023/03/31 07:07:44;;;;;;;4.13;1.80;;;9.20;99.90;;;;;;5001729;28;20737;-72
2023/03/31 07:10:13;;;;;;;3.40;2.17;;;9.10;99.90;;;;;;5000190;28;21119;-71
2023/03/31 07:12:40;;;;;;;2.30;1.83;;;9.10;99.90;;;;;;4994888;28;20616;-72
2023/03/31 07:15:08;;;;;;;1.30;1.30;;;9.10;99.90;;;;;;5008495;28;20639;-71
2023/03/31 07:17:36;;;;;;;2.60;2.00;;;9.10;99.90;;;;;;4995739;28;20643;-72
2023/03/31 07:20:11;;;;;;;1.90;1.80;;;9.10;99.90;;;;;;4989868;28;20640;-72
2023/03/31 07:22:43;;;;;;;2.17;1.87;;;9.10;99.90;;;;;;4989040;28;21038;-72
2023/03/31 07:25:13;;;;;;;1.70;1.37;;;9.10;99.90;;;;;;4975367;28;20632;-72
2023/03/31 07:27:41;;;;;;;3.20;1.97;;;9.20;99.90;;;;;;4987770;28;20653;-72
2023/03/31 07:30:12;;;;;;;1.50;1.40;;;9.10;99.90;;;;;;4986573;28;20643;-72
2023/03/31 07:32:40;;;;;;;1.00;0.97;;;9.20;99.90;;;;;;4986335;28;20648;-72
2023/03/31 07:35:09;;;;;;;3.77;1.57;;;9.10;99.90;;;;;;4995909;28;20637;-72
2023/03/31 07:37:36;;;;;;;1.50;1.40;;;9.10;99.90;;;;;;4986477;28;20625;-72
2023/03/31 07:40:06;;;;;;;0.70;0.70;;;9.00;99.90;;;;;;4984634;28;20645;-72
2023/03/31 07:42:36;;;;;;;3.03;2.00;;;9.00;99.90;;;;;;4983036;28;20669;-71
2023/03/31 07:45:05;;;;;;;1.53;1.00;;;9.20;99.90;;;;;;5001721;28;21083;-71
2023/03/31 07:47:33;;;;;;;1.10;1.00;;;9.30;99.90;;;;;;4999516;28;20703;-72
2023/03/31 07:50:16;;;;;;;0.43;0.43;;;9.50;99.90;;;;;;4992082;28;20633;-72
2023/03/31 07:52:46;;;;;;;1.00;0.90;;;9.60;99.90;;;;;;4989849;28;20744;-71
2023/03/31 07:55:15;;;;;;;2.43;1.43;;;9.70;99.90;;;;;;4995956;28;20722;-71
2023/03/31 07:57:45;;;;;;;0.33;0.33;;;9.70;99.90;;;;;;4991962;28;20633;-70
2023/03/31 08:00:15;;;;;;;0.50;0.50;;;9.70;99.90;;;;;;4985896;28;21240;-71
2023/03/31 08:06:07;;;;;;;0.60;0.60;;;9.70;99.90;;;;;;4985181;28;20665;-72
2023/03/31 12:06:18;;;;;;;0.30;0.20;;;9.20;99.90;;;;;;5008503;28;21201;-70
2023/03/31 12:08:54;;;;;;;0.40;0.33;;;9.60;99.90;;;;;;5005715;28;20628;-71
2023/03/31 12:11:30;;;;;;;0.30;0.20;;;9.90;99.90;;;;;;5006731;28;20652;-71
2023/03/31 12:14:08;;;;;;;2.20;0.93;;;10.00;99.90;;;;;;5008772;28;20623;-70
2023/03/31 12:16:41;;;;;;;0.47;0.20;;;10.20;99.90;;;;;;5007773;28;20759;-70
2023/03/31 12:19:16;;;;;;;0.40;0.20;;;10.20;99.90;;;;;;5006904;28;20616;-70
2023/03/31 12:21:51;;;;;;;0.30;0.20;;;10.30;99.90;;;;;;5007667;28;20655;-70
2023/03/31 12:24:19;;;;;;;6.83;0.63;;;10.50;99.90;;;;;;5008162;28;20942;-70
2023/03/31 12:26:56;;;;;;;2.20;0.37;;;10.60;99.90;;;;;;5007850;28;20649;-70
2023/03/31 12:29:30;;;;;;;0.30;0.30;;;10.90;99.90;;;;;;5006951;28;20650;-70
2023/03/31 12:32:01;;;;;;;0.43;0.30;;;10.90;99.90;;;;;;5007421;28;20663;-70
2023/03/31 12:34:31;;;;;;;0.80;0.37;;;10.90;99.60;;;;;;5006977;28;20608;-70
2023/03/31 12:37:10;;;;;;;0.50;0.20;;;11.00;98.90;;;;;;5005601;28;20662;-70
2023/03/31 15:30:14;;;;;;;0.67;0.43;;;14.80;86.60;;;;;;5007255;28;20616;-71
2023/03/31 15:32:41;;;;;;;1.03;0.60;;;14.60;88.90;;;;;;5009007;28;20656;-71
2023/03/31 15:35:20;;;;;;;0.70;0.37;;;14.70;90.00;;;;;;5009109;28;20628;-71
2023/03/31 15:37:47;;;;;;;0.30;0.17;;;14.80;87.50;;;;;;5008224;28;20980;-70
2023/03/31 15:40:21;;;;;;;2.77;0.47;;;14.50;86.90;;;;;;4996401;28;20733;-70
2023/03/31 15:42:50;;;;;;;0.50;0.30;;;14.50;90.10;;;;;;4989647;28;20660;-70
2023/03/31 15:45:45;;;;;;;0.30;0.20;;;14.10;89.60;;;;;;4989066;28;21179;-70
2023/03/31 15:48:21;;;;;;;0.40;0.40;;;13.80;90.00;;;;;;4988106;28;20981;-70
2023/03/31 15:50:49;;;;;;;0.40;0.30;;;13.50;90.60;;;;;;4989307;28;20653;-70
2023/03/31 15:53:30;;;;;;;0.87;0.60;;;13.20;89.60;;;;;;4989153;28;20625;-70
2023/03/31 15:55:58;;;;;;;3.17;1.60;;;13.10;91.30;;;;;;4988720;28;20667;-70
2023/03/31 15:58:55;;;;;;;0.40;0.40;;;13.10;92.40;;;;;;4987870;28;20756;-70
2023/03/31 16:01:29;;;;;;;0.30;0.20;;;12.70;91.80;;;;;;4989081;28;20642;-70
2023/03/31 16:03:56;;;;;;;0.50;0.30;;;12.70;92.40;;;;;;4989477;28;20679;-70
2023/03/31 16:06:33;;;;;;;0.30;0.20;;;12.60;92.60;;;;;;4988732;28;20713;-70
2023/03/31 16:09:04;;;;;;;0.87;0.60;;;12.60;92.50;;;;;;4986897;28;20615;-70
2023/03/31 16:11:37;;;;;;;1.17;0.50;;;12.50;93.60;;;;;;4988587;28;20659;-70
2023/03/31 16:14:10;;;;;;;0.40;0.30;;;12.40;92.80;;;;;;4989088;28;20631;-70
2023/03/31 16:16:39;;;;;;;0.50;0.50;;;12.40;92.90;;;;;;4988020;28;20649;-70
2023/03/31 16:19:11;;;;;;;0.50;0.30;;;12.10;92.00;;;;;;4988301;28;20617;-70
2023/03/31 16:21:41;;;;;;;0.70;0.23;;;12.00;92.50;;;;;;4988528;28;20736;-69
2023/03/31 16:24:08;;;;;;;0.30;0.20;;;12.00;92.90;;;;;;4988411;28;20679;-70
2023/03/31 16:26:37;;;;;;;0.83;0.50;;;11.70;93.10;;;;;;4988278;28;20653;-69
2023/03/31 16:29:05;;;;;;;1.07;0.70;;;11.60;93.70;;;;;;4987574;28;20627;-69
2023/03/31 16:31:34;;;;;;;0.63;0.27;;;11.50;94.10;;;;;;4988506;28;20680;-68
2023/03/31 16:34:04;;;;;;;0.50;0.40;;;11.30;93.30;;;;;;4988337;28;21183;-68
2023/03/31 16:36:32;;;;;;;3.40;0.50;;;11.20;92.80;;;;;;4988679;28;20751;-68
2023/03/31 16:38:59;;;;;;;0.47;0.47;;;11.00;92.40;;;;;;4987259;28;20632;-70
2023/03/31 16:41:28;;;;;;;0.30;0.20;;;10.70;95.10;;;;;;4988055;28;21238;-69
2023/03/31 16:43:55;;;;;;;0.60;0.60;;;10.60;96.40;;;;;;4988425;28;20656;-70
2023/03/31 16:46:23;;;;;;;0.50;0.40;;;10.30;95.70;;;;;;4987599;28;20653;-70
2023/03/31 16:48:50;;;;;;;0.40;0.20;;;10.10;96.70;;;;;;4987186;28;20745;-69
2023/03/31 16:51:20;;;;;;;0.40;0.30;;;9.90;96.70;;;;;;4988297;28;20641;-70
2023/03/31 16:53:47;;;;;;;0.30;0.20;;;9.90;96.90;;;;;;4988342;28;20621;-69
2023/03/31 16:56:14;;;;;;;0.30;0.20;;;9.90;97.50;;;;;;4988079;28;20657;-68
2023/03/31 16:58:42;;;;;;;0.30;0.20;;;9.70;97.00;;;;;;4986935;28;20999;-68
2023/03/31 17:01:10;;;;;;;1.37;0.60;;;9.70;97.00;;;;;;4987511;28;20641;-70
2023/03/31 17:03:40;;;;;;;0.60;0.60;;;9.70;97.90;;;;;;4988455;28;20763;-68
2023/03/31 17:06:15;;;;;;;0.30;0.20;;;9.90;99.10;;;;;;4987244;28;20696;-69
2023/03/31 17:08:44;;;;;;;0.50;0.30;;;9.90;98.20;;;;;;4992321;28;20641;-68
2023/03/31 17:11:14;;;;;;;0.60;0.30;;;9.80;97.90;;;;;;5003107;28;20756;-69
2023/03/31 17:13:42;;;;;;;0.60;0.43;;;9.80;97.90;;;;;;5007221;28;20627;-69
2023/03/31 17:16:09;;;;;;;2.30;1.10;;;9.80;98.60;;;;;;4985871;28;20664;-70
2023/03/31 17:18:36;;;;;;;0.80;0.40;;;9.80;99.00;;;;;;4986586;28;20625;-69
2023/03/31 17:21:08;;;;;;;2.40;2.30;;;9.70;98.80;;;;;;4990859;28;20675;-68
2023/03/31 17:23:35;;;;;;;0.50;0.40;;;9.70;98.50;;;;;;4990824;28;20663;-68
2023/03/31 17:26:05;;;;;;;0.70;0.50;;;9.80;99.00;;;;;;4991416;28;20756;-69
2023/03/31 17:28:32;;;;;;;0.60;0.60;;;9.80;99.50;;;;;;4991792;28;20629;-69
2023/03/31 17:30:59;;;;;;;0.77;0.60;;;9.70;99.50;;;;;;4988684;28;20668;-69
2023/03/31 17:33:26;;;;;;;1.43;0.53;;;9.70;99.50;;;;;;5000471;28;20634;-68
2023/03/31 17:35:57;;;;;;;0.30;0.20;;;9.70;99.30;;;;;;4995554;28;20752;-68
2023/03/31 17:38:27;;;;;;;0.83;0.63;;;9.70;99.20;;;;;;4986213;28;20633;-69
2023/03/31 17:40:54;;;;;;;1.27;0.97;;;9.60;99.30;;;;;;4988950;28;20698;-69
2023/03/31 17:43:23;;;;;;;0.67;0.67;;;9.60;99.20;;;;;;4988419;28;20672;-69
2023/03/31 17:45:50;;;;;;;0.70;0.70;;;9.60;99.70;;;;;;4985482;28;20661;-69
2023/03/31 17:48:18;;;;;;;0.47;0.47;;;9.60;99.70;;;;;;4992748;28;20633;-71
2023/03/31 17:50:45;;;;;;;0.97;0.63;;;9.60;99.90;;;;;;4990951;28;20692;-68
2023/03/31 17:53:12;;;;;;;0.63;0.60;;;9.60;99.90;;;;;;4982530;28;20641;-70
2023/03/31 17:55:40;;;;;;;4.43;0.67;;;9.50;99.60;;;;;;4988520;28;21043;-69
2023/03/31 17:58:12;;;;;;;0.47;0.47;;;9.50;99.50;;;;;;4986298;28;20670;-71
2023/03/31 18:00:43;;;;;;;0.40;0.30;;;9.50;99.80;;;;;;4996750;28;20702;-69
2023/03/31 18:03:11;;;;;;;0.93;0.30;;;9.50;99.90;;;;;;4990343;28;20660;-70
2023/03/31 18:05:40;;;;;;;2.87;1.23;;;9.50;99.90;;;;;;4989574;28;20715;-69
2023/03/31 18:08:07;;;;;;;10.73;0.70;;;9.50;99.90;;;;;;4989300;28;20714;-70
2023/03/31 18:10:34;;;;;;;0.50;0.40;;;9.50;99.90;;;;;;5007788;28;21239;-69
2023/03/31 18:13:03;;;;;;;0.80;0.33;;;9.50;99.90;;;;;;4991294;28;20721;-69
2023/03/31 18:15:32;;;;;;;1.90;0.50;;;9.50;99.90;;;;;;4989435;28;21236;-69
2023/03/31 18:18:03;;;;;;;0.70;0.60;;;9.50;99.90;;;;;;4989181;28;21167;-69
2023/03/31 18:20:31;;;;;;;0.40;0.30;;;9.50;99.90;;;;;;4989763;28;21174;-69
2023/03/31 18:22:59;;;;;;;0.60;0.30;;;9.40;99.90;;;;;;4990946;28;20625;-69
2023/03/31 18:25:27;;;;;;;0.37;0.37;;;9.40;99.90;;;;;;4989967;28;20657;-70
2023/03/31 18:27:54;;;;;;;0.90;0.60;;;9.30;99.90;;;;;;4988488;28;20625;-69
2023/03/31 18:30:22;;;;;;;0.33;0.23;;;9.30;99.90;;;;;;4990160;28;20760;-69
2023/03/31 18:32:49;;;;;;;0.60;0.60;;;9.30;99.90;;;;;;4988903;28;20617;-69
2023/03/31 18:35:22;;;;;;;0.30;0.30;;;9.30;99.90;;;;;;4990947;28;20625;-69
2023/03/31 18:37:49;;;;;;;0.53;0.53;;;9.10;99.90;;;;;;4990351;28;20632;-69
2023/03/31 18:40:16;;;;;;;0.50;0.43;;;9.20;99.90;;;;;;4990241;28;20653;-69
2023/03/31 18:42:43;;;;;;;0.50;0.50;;;9.10;99.90;;;;;;4989853;28;20632;-69
2023/03/31 18:45:11;;;;;;;0.70;0.50;;;9.20;99.90;;;;;;4989911;28;20668;-69
2023/03/31 18:47:39;;;;;;;2.00;1.43;;;9.20;99.90;;;;;;4990488;28;20630;-69
2023/03/31 18:50:09;;;;;;;1.33;1.23;;;9.10;99.90;;;;;;4989346;28;20973;-69
2023/03/31 18:52:40;;;;;;;0.40;0.30;;;9.10;99.90;;;;;;4990252;28;20707;-69
2023/03/31 18:55:08;;;;;;;0.53;0.30;;;9.10;99.90;;;;;;4990197;28;21191;-69
2023/03/31 18:57:35;;;;;;;0.40;0.23;;;9.10;99.90;;;;;;4989220;28;20728;-69
2023/03/31 19:00:04;;;;;;;0.50;0.40;;;9.00;99.90;;;;;;4988976;28;20625;-69
2023/03/31 19:02:34;;;;;;;0.30;0.20;;;9.10;99.90;;;;;;4988924;28;20624;-69
2023/03/31 19:05:00;;;;;;;0.60;0.60;;;9.10;99.90;;;;;;4990208;28;20673;-68
2023/03/31 19:07:29;;;;;;;2.10;0.53;;;9.00;99.90;;;;;;4991629;28;21646;-68
2023/03/31 19:09:59;;;;;;;1.40;0.83;;;9.00;99.90;;;;;;4994637;28;20641;-69
2023/03/31 19:12:27;;;;;;;1.27;0.53;;;9.00;99.90;;;;;;4989014;28;20656;-69
2023/03/31 19:14:54;;;;;;;0.60;0.40;;;9.00;99.90;;;;;;4990038;28;20635;-69
2023/03/31 19:17:22;;;;;;;3.27;0.50;;;9.00;99.90;;;;;;4988979;28;20656;-70
2023/03/31 19:19:50;;;;;;;0.50;0.50;;;8.90;99.90;;;;;;4987365;28;20637;-69
2023/03/31 19:22:17;;;;;;;0.63;0.63;;;9.00;99.90;;;;;;4996318;28;20718;-69
2023/03/31 19:24:44;;;;;;;0.50;0.40;;;8.90;99.90;;;;;;4987992;28;20664;-69
2023/03/31 19:27:12;;;;;;;0.40;0.30;;;9.00;99.90;;;;;;4996573;28;20656;-69
2023/03/31 19:29:39;;;;;;;1.00;0.40;;;8.90;99.90;;;;;;4987742;28;20661;-69
2023/03/31 19:32:07;;;;;;;1.03;0.70;;;8.90;99.90;;;;;;4987393;28;21707;-69
2023/03/31 19:34:35;;;;;;;2.53;0.40;;;9.00;99.90;;;;;;4988947;28;20630;-70
2023/03/31 19:37:04;;;;;;;0.30;0.27;;;8.90;99.90;;;;;;4987570;28;21068;-69
2023/03/31 19:39:31;;;;;;;5.80;1.37;;;8.90;99.90;;;;;;4987943;28;20653;-69
2023/03/31 19:41:58;;;;;;;0.73;0.40;;;9.00;99.90;;;;;;4989138;28;20752;-69
2023/03/31 19:44:26;;;;;;;0.67;0.67;;;9.00;99.90;;;;;;4988018;28;21579;-69
2023/03/31 19:46:53;;;;;;;0.70;0.50;;;9.00;99.90;;;;;;4989207;28;20649;-70
2023/03/31 19:49:21;;;;;;;0.70;0.53;;;9.00;99.90;;;;;;4988274;28;20621;-71
2023/03/31 19:51:50;;;;;;;0.67;0.50;;;9.10;99.90;;;;;;4988144;28;20659;-70
2023/03/31 19:54:17;;;;;;;2.73;1.23;;;8.90;99.90;;;;;;4989504;28;20707;-68
2023/03/31 19:56:44;;;;;;;0.50;0.40;;;9.00;99.90;;;;;;4988696;28;20653;-69
2023/03/31 19:59:10;;;;;;;0.30;0.23;;;8.90;99.90;;;;;;4986904;28;20708;-69
2023/03/31 20:01:40;;;;;;;1.27;0.63;;;8.90;99.90;;;;;;4988652;28;20653;-69
2023/03/31 20:04:07;;;;;;;0.40;0.30;;;8.90;99.90;;;;;;4988852;28;20784;-69